This is the latest recevied weather packets stored in our database for station/object HARMAJA. If no packets are shown the sender has not sent any weather packets the latest 1 day(s).
| Time | Temp. | Humidity | Pressure | Rain* | Wind** | Luminosity | Snow |
|---|---|---|---|---|---|---|---|
| 1836274169 | 15.56° C | 95% | 1009.5 hPa | - | 10.28 m/s, 207° | - | - |
| 1778039239 | 3.89° C | 78% | 1011.2 hPa | - | 4.92 m/s, 266° | - | - |
| 1778038039 | 3.33° C | 77% | 1010.9 hPa | - | 4.92 m/s, 261° | - | - |
| 1778036839 | 3.33° C | 78% | 1010.7 hPa | - | 4.92 m/s, 258° | - | - |
| 1778035639 | 3.33° C | 78% | 1010.5 hPa | - | 4.92 m/s, 257° | - | - |
| 1778034439 | 3.89° C | 74% | 1010.4 hPa | - | 4.92 m/s, 266° | - | - |
| 1778033239 | 3.89° C | 75% | 1010.2 hPa | - | 4.47 m/s, 280° | - | - |
| 1778032039 | 3.89° C | 76% | 1010 hPa | - | 4.92 m/s, 275° | - | - |
| 1778030839 | 3.89° C | 74% | 1009.9 hPa | - | 6.26 m/s, 278° | - | - |
| 1778029639 | 3.89° C | 76% | 1009.7 hPa | - | 6.71 m/s, 282° | - | - |
| 1778028438 | 4.44° C | 73% | 1009.5 hPa | - | 6.71 m/s, 292° | - | - |
| 1778027238 | 4.44° C | 73% | 1009.3 hPa | - | 7.15 m/s, 293° | - | - |
| 1778026038 | 3.89° C | 75% | 1009.3 hPa | - | 6.26 m/s, 289° | - | - |
| 1778024839 | 3.89° C | 76% | 1009.2 hPa | - | 6.71 m/s, 283° | - | - |
| 1778023639 | 4.44° C | 73% | 1009 hPa | - | 7.15 m/s, 283° | - | - |
| 1778022438 | 4.44° C | 73% | 1008.9 hPa | - | 7.15 m/s, 282° | - | - |
| 1778021238 | 4.44° C | 71% | 1008.7 hPa | - | 8.05 m/s, 280° | - | - |
| 1778020038 | 4.44° C | 71% | 1008.6 hPa | - | 8.05 m/s, 275° | - | - |
| 1778018838 | 4.44° C | 72% | 1008.5 hPa | - | 8.05 m/s, 272° | - | - |
| 1778017638 | 5° C | 69% | 1008.4 hPa | - | 8.49 m/s, 271° | - | - |
| 1778016438 | 5° C | 68% | 1008.2 hPa | - | 8.49 m/s, 273° | - | - |
| 1778015238 | 5.56° C | 68% | 1008 hPa | - | 6.71 m/s, 275° | - | - |
| 1778014038 | 5.56° C | 63% | 1007.7 hPa | - | 8.05 m/s, 278° | - | - |
| 1778012838 | 5.56° C | 62% | 1007.5 hPa | - | 8.05 m/s, 278° | - | - |
| 1778011638 | 6.11° C | 61% | 1007.3 hPa | - | 8.05 m/s, 274° | - | - |
* Rain since midnight (hover to see other rain measurements)
** Current wind speed in m/s (hover to see current wind gust speed)